Time;durP1;ratioP1;P1;durP2;ratioP2;P2;SDS_P1;SDS_P2;PMS_P1;PMS_P2;Temp;Humidity;BMP_temperature;BMP_pressure;BME280_temperature;BME280_humidity;BME280_pressure;Samples;Min_cycle;Max_cycle;Signal;HPM_P1;HPM_P2
2022/04/21 00:00:45;;;;;;;6.32;3.85;;;7.50;99.90;;;;;;4960140;28;20061;-69
2022/04/21 00:03:11;;;;;;;7.53;4.30;;;7.50;99.90;;;;;;4961267;28;20632;-69
2022/04/21 00:05:37;;;;;;;8.43;4.47;;;7.50;99.90;;;;;;4961303;28;20101;-69
2022/04/21 00:08:03;;;;;;;6.05;4.22;;;7.40;99.90;;;;;;4963915;28;20045;-69
2022/04/21 00:10:30;;;;;;;7.13;3.83;;;7.40;99.90;;;;;;4959019;28;20041;-69
2022/04/21 00:12:56;;;;;;;7.45;4.10;;;7.40;99.90;;;;;;4956567;28;20043;-69
2022/04/21 00:15:23;;;;;;;6.22;4.15;;;7.50;99.90;;;;;;4959180;28;20663;-69
2022/04/21 00:17:48;;;;;;;4.82;4.18;;;7.50;99.90;;;;;;4962421;28;20101;-69
2022/04/21 00:20:14;;;;;;;7.22;4.50;;;7.50;99.90;;;;;;4959260;28;20485;-69
2022/04/21 00:25:26;;;;;;;7.10;4.55;;;7.50;99.90;;;;;;4963295;28;20055;-69
2022/04/21 00:27:53;;;;;;;9.25;4.40;;;7.50;99.90;;;;;;4957702;28;20058;-69
2022/04/21 00:30:18;;;;;;;9.43;4.65;;;7.50;99.90;;;;;;4962112;28;20043;-69
2022/04/21 00:32:45;;;;;;;8.82;4.80;;;7.50;99.90;;;;;;4960574;28;20039;-69
2022/04/21 00:35:12;;;;;;;6.47;4.60;;;7.50;99.90;;;;;;4945291;28;20137;-69
2022/04/21 00:37:49;;;;;;;8.80;4.28;;;7.50;99.90;;;;;;4975896;28;20035;-69
2022/04/21 00:40:16;;;;;;;8.40;5.20;;;7.50;99.90;;;;;;4958750;28;20429;-69
2022/04/21 00:42:42;;;;;;;7.05;4.78;;;7.40;99.90;;;;;;4959600;28;20130;-69
2022/04/21 00:45:09;;;;;;;5.22;4.38;;;7.40;99.90;;;;;;4961671;28;20046;-69
2022/04/21 00:47:40;;;;;;;8.05;4.70;;;7.40;99.90;;;;;;4980808;28;20134;-69
2022/04/21 00:50:07;;;;;;;6.65;5.25;;;7.30;99.90;;;;;;4959030;28;20042;-69
2022/04/21 00:52:33;;;;;;;6.07;4.25;;;7.20;99.90;;;;;;4960245;28;20493;-69
2022/04/21 00:54:59;;;;;;;7.78;4.70;;;7.20;99.90;;;;;;4959318;28;20038;-69
2022/04/21 00:57:25;;;;;;;9.45;5.57;;;7.10;99.90;;;;;;4972929;28;20043;-69
2022/04/21 00:59:52;;;;;;;6.28;4.68;;;7.10;99.90;;;;;;4960622;28;20066;-69
2022/04/21 01:05:02;;;;;;;7.45;4.82;;;7.00;99.90;;;;;;4961774;28;20058;-69
2022/04/21 01:07:27;;;;;;;7.85;5.38;;;7.10;99.90;;;;;;4960714;28;20035;-69
2022/04/21 01:09:55;;;;;;;10.77;5.18;;;7.00;99.90;;;;;;4959601;28;20054;-69
2022/04/21 01:12:21;;;;;;;8.75;5.65;;;7.00;99.90;;;;;;4959616;28;20054;-69
2022/04/21 01:14:47;;;;;;;7.78;5.50;;;7.00;99.90;;;;;;4960106;28;20126;-69
2022/04/21 01:17:13;;;;;;;10.65;6.15;;;7.00;99.90;;;;;;4960720;28;20089;-69
2022/04/21 01:19:39;;;;;;;6.60;5.07;;;7.00;99.90;;;;;;4959618;28;20115;-69
2022/04/21 01:22:04;;;;;;;8.20;5.35;;;6.90;99.90;;;;;;4960032;28;20062;-69
2022/04/21 01:24:30;;;;;;;7.32;5.32;;;6.90;99.90;;;;;;4960380;28;20171;-69
2022/04/21 01:26:57;;;;;;;8.18;5.18;;;6.90;99.90;;;;;;4959424;28;20050;-69
2022/04/21 01:29:24;;;;;;;8.50;5.70;;;7.00;99.90;;;;;;4953087;28;20062;-69
2022/04/21 01:31:50;;;;;;;11.02;6.32;;;6.90;99.90;;;;;;4975937;28;20062;-69
2022/04/21 01:34:16;;;;;;;11.50;6.13;;;6.90;99.90;;;;;;4942869;28;20038;-69
2022/04/21 01:42:14;;;;;;;8.57;6.25;;;6.80;99.90;;;;;;4962396;28;20457;-69
2022/04/21 01:44:41;;;;;;;7.93;6.10;;;6.70;99.90;;;;;;4961612;28;20054;-69
2022/04/21 01:47:06;;;;;;;9.05;6.55;;;6.70;99.90;;;;;;4964012;28;20035;-69
2022/04/21 01:49:32;;;;;;;7.57;6.43;;;6.70;99.90;;;;;;4962923;28;20054;-69
2022/04/21 01:51:57;;;;;;;8.73;6.13;;;6.70;99.90;;;;;;4960628;28;20120;-69
2022/04/21 01:54:23;;;;;;;8.73;6.45;;;6.70;99.90;;;;;;4961339;28;20053;-69
2022/04/21 01:56:48;;;;;;;10.45;6.95;;;6.60;99.90;;;;;;4967068;28;20054;-69
2022/04/21 01:59:14;;;;;;;8.13;6.70;;;6.60;99.90;;;;;;4962250;28;20047;-69
2022/04/21 02:01:40;;;;;;;9.40;6.78;;;6.70;99.90;;;;;;4967110;28;20039;-69
2022/04/21 02:04:05;;;;;;;10.00;6.75;;;6.70;99.90;;;;;;4965253;28;20100;-69
2022/04/21 02:06:31;;;;;;;12.70;7.35;;;6.70;99.90;;;;;;4963963;28;20035;-68
2022/04/21 02:08:58;;;;;;;9.13;7.03;;;6.70;99.90;;;;;;4964789;28;20073;-69
2022/04/21 02:11:24;;;;;;;13.55;7.50;;;6.70;99.90;;;;;;4965256;28;20051;-69
2022/04/21 02:13:49;;;;;;;10.07;7.53;;;6.70;99.90;;;;;;4963119;28;20081;-69
2022/04/21 02:16:15;;;;;;;9.75;7.00;;;6.70;99.90;;;;;;4962314;28;20062;-69
2022/04/21 02:18:41;;;;;;;15.13;8.40;;;6.60;99.90;;;;;;4965318;28;20043;-68
2022/04/21 02:21:06;;;;;;;10.98;7.55;;;6.60;99.90;;;;;;4964572;28;20039;-68
2022/04/21 02:23:32;;;;;;;10.00;7.30;;;6.60;99.90;;;;;;4963581;28;20046;-69
2022/04/21 02:25:57;;;;;;;13.90;8.20;;;6.60;99.90;;;;;;4966327;28;20050;-69
2022/04/21 02:28:25;;;;;;;12.93;9.00;;;6.70;99.90;;;;;;4961889;28;20046;-69
2022/04/21 02:30:51;;;;;;;11.98;7.57;;;6.70;99.90;;;;;;4963809;28;20043;-69
2022/04/21 02:33:20;;;;;;;12.95;7.72;;;6.60;99.90;;;;;;4978583;28;20057;-69
2022/04/21 02:35:46;;;;;;;10.38;7.90;;;6.70;99.90;;;;;;4963416;28;20066;-69
2022/04/21 02:38:11;;;;;;;12.13;7.53;;;6.60;99.90;;;;;;4962584;28;20073;-69
2022/04/21 02:40:37;;;;;;;9.02;7.15;;;6.60;99.90;;;;;;4961036;28;20034;-69
2022/04/21 02:43:02;;;;;;;14.77;8.05;;;6.60;99.90;;;;;;4961580;28;20047;-69
2022/04/21 02:45:28;;;;;;;12.13;7.28;;;6.50;99.90;;;;;;4959264;28;20042;-69
2022/04/21 02:47:54;;;;;;;11.18;7.93;;;6.60;99.90;;;;;;4962342;28;20061;-69
2022/04/21 02:50:20;;;;;;;10.57;7.65;;;6.50;99.90;;;;;;4960985;28;20078;-69
2022/04/21 02:52:46;;;;;;;10.57;7.20;;;6.60;99.90;;;;;;4962900;28;20041;-69
2022/04/21 02:57:57;;;;;;;12.88;7.88;;;6.60;99.90;;;;;;4964701;28;20051;-69
2022/04/21 03:00:23;;;;;;;9.90;7.45;;;6.70;99.90;;;;;;4961946;28;21019;-69
2022/04/21 03:02:49;;;;;;;8.85;7.65;;;6.60;99.90;;;;;;4961075;28;20130;-69
2022/04/21 03:05:15;;;;;;;9.48;7.63;;;6.60;99.90;;;;;;4959763;28;20045;-69
2022/04/21 03:07:41;;;;;;;10.93;7.22;;;6.60;99.90;;;;;;4962884;28;20120;-69
2022/04/21 03:10:07;;;;;;;9.35;6.78;;;6.50;99.90;;;;;;4975615;28;20133;-69
2022/04/21 03:12:32;;;;;;;9.55;7.43;;;6.50;99.90;;;;;;4962086;28;20046;-69
2022/04/21 03:14:58;;;;;;;8.77;7.53;;;6.40;99.90;;;;;;4960517;28;20074;-69
2022/04/21 03:17:25;;;;;;;11.50;7.88;;;6.40;99.90;;;;;;4963713;28;20043;-69
2022/04/21 03:19:51;;;;;;;9.70;7.78;;;6.30;99.90;;;;;;4962430;28;20053;-69
2022/04/21 03:25:06;;;;;;;9.35;8.00;;;6.30;99.90;;;;;;4979683;28;20047;-69
2022/04/21 03:27:33;;;;;;;10.32;8.38;;;6.20;99.90;;;;;;4961459;28;20054;-69
2022/04/21 03:30:04;;;;;;;14.63;7.65;;;6.20;99.90;;;;;;4963234;28;20049;-69
2022/04/21 03:32:29;;;;;;;10.02;7.57;;;6.20;99.90;;;;;;4960608;28;20503;-69
2022/04/21 03:34:55;;;;;;;10.68;7.68;;;6.20;99.90;;;;;;4978140;28;20046;-69
2022/04/21 03:37:21;;;;;;;9.98;7.05;;;6.10;99.90;;;;;;4961459;28;20046;-69
2022/04/21 03:39:47;;;;;;;9.35;8.45;;;6.10;99.90;;;;;;4960422;28;20089;-69
2022/04/21 03:42:31;;;;;;;9.68;7.75;;;6.10;99.90;;;;;;4961376;28;20034;-69
2022/04/21 03:44:57;;;;;;;11.13;7.70;;;6.10;99.90;;;;;;4963822;28;20448;-69
2022/04/21 03:47:23;;;;;;;11.38;8.63;;;6.10;99.90;;;;;;4963498;28;20047;-69
2022/04/21 03:49:49;;;;;;;10.80;8.13;;;6.00;99.90;;;;;;4961097;28;20129;-69
2022/04/21 03:52:17;;;;;;;12.18;8.27;;;5.90;99.90;;;;;;4955936;28;20046;-69
2022/04/21 03:54:43;;;;;;;10.55;8.02;;;6.00;99.90;;;;;;4956448;28;20065;-69
2022/04/21 03:57:08;;;;;;;12.77;9.57;;;5.90;99.90;;;;;;4961616;28;20031;-69
2022/04/21 03:59:37;;;;;;;11.63;8.48;;;5.90;99.90;;;;;;4961232;28;20042;-69
2022/04/21 04:02:03;;;;;;;9.60;7.65;;;5.90;99.90;;;;;;4959560;28;20152;-69
2022/04/21 04:04:30;;;;;;;11.23;7.90;;;5.80;99.90;;;;;;4961704;28;20695;-69
2022/04/21 04:12:33;;;;;;;15.52;8.52;;;5.80;99.90;;;;;;4957977;28;20531;-69
2022/04/21 04:14:59;;;;;;;16.13;8.68;;;5.70;99.90;;;;;;4962307;28;20047;-69
2022/04/21 04:17:26;;;;;;;10.18;8.85;;;5.70;99.90;;;;;;4961483;28;20074;-68
2022/04/21 04:19:52;;;;;;;10.25;8.45;;;5.70;99.90;;;;;;4958806;28;20042;-68
2022/04/21 04:22:18;;;;;;;12.60;9.30;;;5.70;99.90;;;;;;4959546;28;20047;-69
2022/04/21 04:24:47;;;;;;;11.02;8.70;;;5.60;99.90;;;;;;4954933;28;20051;-69
2022/04/21 04:27:13;;;;;;;13.27;8.65;;;5.70;99.90;;;;;;4960641;28;20043;-69
2022/04/21 04:29:39;;;;;;;13.88;8.73;;;5.70;99.90;;;;;;4961309;28;20070;-68
2022/04/21 04:32:05;;;;;;;12.38;9.00;;;5.70;99.90;;;;;;4961418;28;20125;-69
2022/04/21 04:34:30;;;;;;;13.52;9.10;;;5.70;99.90;;;;;;4962215;28;20457;-69
2022/04/21 04:36:56;;;;;;;14.95;8.77;;;5.70;99.90;;;;;;4958226;28;20039;-69
2022/04/21 04:39:22;;;;;;;10.65;8.63;;;5.70;99.90;;;;;;4957532;28;20134;-70
2022/04/21 04:44:32;;;;;;;12.25;8.38;;;5.80;99.90;;;;;;4959138;28;20051;-69
2022/04/21 04:46:57;;;;;;;11.57;9.27;;;5.80;99.90;;;;;;4960544;28;20335;-69
2022/04/21 04:49:24;;;;;;;12.75;8.88;;;5.80;99.90;;;;;;4961277;28;20047;-69
2022/04/21 04:51:50;;;;;;;11.80;8.27;;;6.00;99.90;;;;;;4955872;28;20396;-68
2022/04/21 04:54:17;;;;;;;11.82;8.48;;;6.10;99.90;;;;;;4954646;28;20146;-69
2022/04/21 04:56:44;;;;;;;11.38;7.97;;;6.30;99.90;;;;;;4975190;28;20065;-69
2022/04/21 04:59:10;;;;;;;9.98;8.70;;;6.60;99.90;;;;;;4960035;28;20433;-69
2022/04/21 05:01:45;;;;;;;11.40;7.65;;;7.00;99.90;;;;;;4957773;28;20043;-68
2022/04/21 05:04:18;;;;;;;12.20;7.82;;;7.70;99.90;;;;;;4956853;28;20046;-69
2022/04/21 05:06:53;;;;;;;11.52;7.57;;;8.40;99.90;;;;;;4955081;28;20162;-68
2022/04/21 05:09:23;;;;;;;8.63;7.03;;;9.10;99.90;;;;;;4960843;28;20046;-69
2022/04/21 05:11:51;;;;;;;8.70;6.25;;;9.90;99.90;;;;;;4959983;28;20457;-69
2022/04/21 05:14:18;;;;;;;8.30;5.68;;;10.60;99.90;;;;;;4960351;28;20393;-69
2022/04/21 05:16:44;;;;;;;8.23;5.97;;;11.30;99.90;;;;;;4963776;28;20053;-69
2022/04/21 05:19:11;;;;;;;7.18;5.88;;;12.00;99.90;;;;;;4959556;28;20564;-69
2022/04/21 05:21:38;;;;;;;6.85;5.50;;;12.70;99.90;;;;;;4962386;28;20504;-69
2022/04/21 05:24:05;;;;;;;7.20;5.45;;;13.30;99.90;;;;;;4953898;28;20244;-69
2022/04/21 05:26:32;;;;;;;7.00;6.10;;;13.90;99.90;;;;;;4944355;28;20050;-69
2022/04/21 05:31:47;;;;;;;8.25;6.00;;;15.50;95.90;;;;;;4958341;28;20042;-69
2022/04/21 05:34:13;;;;;;;9.23;5.60;;;16.10;91.60;;;;;;4959621;28;20051;-69
2022/04/21 05:36:39;;;;;;;6.47;5.60;;;16.90;90.30;;;;;;4958521;28;20154;-69
2022/04/21 05:39:06;;;;;;;7.47;5.20;;;17.50;86.10;;;;;;4959569;28;20090;-69
2022/04/21 05:41:32;;;;;;;7.95;5.63;;;18.20;80.50;;;;;;4958879;28;20054;-69
2022/04/21 05:43:59;;;;;;;8.60;5.07;;;18.90;75.90;;;;;;4962807;28;20035;-69
2022/04/21 05:46:24;;;;;;;6.25;5.05;;;19.40;71.20;;;;;;4958872;28;20058;-69
2022/04/21 05:48:51;;;;;;;7.82;5.10;;;19.80;67.90;;;;;;4959270;28;20043;-69
2022/04/21 05:51:17;;;;;;;7.78;4.72;;;20.10;66.40;;;;;;4960540;28;20392;-68
2022/04/21 05:53:48;;;;;;;7.35;4.85;;;20.60;64.20;;;;;;4958084;28;20050;-68
2022/04/21 05:56:13;;;;;;;5.78;4.97;;;21.00;61.70;;;;;;4958515;28;20121;-69
2022/04/21 05:58:39;;;;;;;5.72;5.10;;;21.20;60.80;;;;;;4958699;28;20509;-68
2022/04/21 06:01:08;;;;;;;11.43;4.30;;;21.20;58.50;;;;;;4976523;28;20039;-68
2022/04/21 06:03:34;;;;;;;6.32;4.90;;;21.30;58.50;;;;;;4960435;28;20090;-69
2022/04/21 06:06:01;;;;;;;5.43;4.65;;;21.60;57.10;;;;;;4959660;28;20046;-68
2022/04/21 06:08:26;;;;;;;5.53;5.03;;;21.70;55.40;;;;;;4960441;28;20042;-68
2022/04/21 06:10:52;;;;;;;6.18;4.78;;;21.60;55.10;;;;;;4958431;28;20061;-68
2022/04/21 06:13:18;;;;;;;6.28;4.63;;;21.40;56.00;;;;;;4963027;28;20723;-68
2022/04/21 06:15:44;;;;;;;5.45;4.80;;;21.80;56.10;;;;;;4976731;28;20621;-68
2022/04/21 06:18:10;;;;;;;4.88;4.25;;;21.60;53.30;;;;;;4959656;28;20144;-68
2022/04/21 06:20:36;;;;;;;8.05;4.43;;;22.00;54.50;;;;;;4957381;28;20070;-68
2022/04/21 06:23:02;;;;;;;5.60;4.55;;;22.10;53.70;;;;;;4956343;28;20126;-68
2022/04/21 06:25:28;;;;;;;6.07;4.80;;;21.80;52.70;;;;;;4962803;28;20031;-68
2022/04/21 06:28:06;;;;;;;6.00;4.38;;;21.30;53.80;;;;;;4962895;28;20046;-68
2022/04/21 06:30:32;;;;;;;6.55;4.25;;;20.70;55.70;;;;;;4963234;28;20046;-68
2022/04/21 06:33:02;;;;;;;5.50;4.28;;;20.20;57.30;;;;;;4960702;28;20054;-68
2022/04/21 06:35:28;;;;;;;5.40;4.55;;;19.50;58.90;;;;;;4963085;28;20062;-69
2022/04/21 06:37:54;;;;;;;6.68;4.30;;;18.90;60.50;;;;;;4962443;28;20478;-69
2022/04/21 06:40:20;;;;;;;5.68;4.22;;;18.50;62.20;;;;;;4963348;28;20053;-69
2022/04/21 06:42:46;;;;;;;7.00;3.85;;;18.00;62.60;;;;;;4963456;28;20493;-69
2022/04/21 06:48:04;;;;;;;6.63;3.55;;;17.20;63.10;;;;;;4960567;28;20050;-69
2022/04/21 06:50:37;;;;;;;4.43;3.58;;;16.80;64.10;;;;;;4964625;28;20125;-68
2022/04/21 06:53:05;;;;;;;4.35;3.05;;;16.50;64.20;;;;;;4963732;28;20041;-68
2022/04/21 06:55:31;;;;;;;4.30;3.22;;;16.20;64.50;;;;;;4964932;28;20050;-68
2022/04/21 06:57:57;;;;;;;3.33;2.58;;;16.00;64.60;;;;;;4959593;28;20042;-68
2022/04/21 07:00:26;;;;;;;4.90;2.92;;;15.70;64.80;;;;;;4961065;28;21047;-68
2022/04/21 07:02:53;;;;;;;5.00;3.17;;;15.50;66.90;;;;;;4961595;28;20061;-69
2022/04/21 07:05:20;;;;;;;4.53;2.40;;;15.50;67.10;;;;;;4958200;28;20464;-69
2022/04/21 07:07:47;;;;;;;2.80;2.42;;;15.40;66.20;;;;;;4958502;28;20097;-69
2022/04/21 07:10:13;;;;;;;2.60;2.40;;;15.30;66.10;;;;;;4962241;28;20432;-68
2022/04/21 07:12:39;;;;;;;4.10;1.77;;;15.20;66.80;;;;;;4964180;28;20043;-69
2022/04/21 07:15:07;;;;;;;4.22;2.03;;;15.30;67.10;;;;;;4961791;28;20378;-68
2022/04/21 07:17:34;;;;;;;5.63;2.10;;;15.20;65.70;;;;;;4958429;28;20065;-68
2022/04/21 07:20:00;;;;;;;6.75;2.00;;;15.10;66.00;;;;;;4963414;28;20042;-68
2022/04/21 07:22:26;;;;;;;3.97;1.48;;;15.10;66.40;;;;;;4962375;28;20050;-68
2022/04/21 07:24:52;;;;;;;2.33;1.30;;;15.10;66.50;;;;;;4960902;28;20086;-69
2022/04/21 07:27:17;;;;;;;2.42;0.95;;;15.10;64.70;;;;;;4961505;28;20071;-68
2022/04/21 07:29:43;;;;;;;2.40;1.23;;;15.10;63.60;;;;;;4965944;28;20089;-68
2022/04/21 07:32:09;;;;;;;13.75;3.10;;;15.00;63.80;;;;;;4962467;28;20058;-68
2022/04/21 07:34:35;;;;;;;5.90;1.25;;;14.80;64.60;;;;;;4960498;28;20065;-68
2022/04/21 07:37:01;;;;;;;4.28;1.15;;;14.60;64.80;;;;;;4964526;28;20030;-69
2022/04/21 07:39:26;;;;;;;3.33;1.35;;;14.70;65.20;;;;;;4960017;28;20090;-68
2022/04/21 07:41:52;;;;;;;2.25;1.23;;;14.60;66.30;;;;;;4962648;28;20062;-68
2022/04/21 07:44:18;;;;;;;2.15;1.27;;;14.60;65.70;;;;;;4960168;28;20057;-68
2022/04/21 07:46:44;;;;;;;3.20;1.30;;;14.60;63.90;;;;;;4959629;28;20046;-68
2022/04/21 07:53:12;;;;;;;4.10;1.58;;;14.60;65.30;;;;;;4962899;28;20081;-68
2022/04/21 07:54:40;;;;;;;1.80;1.35;;;14.60;66.80;;;;;;4962491;28;20896;-68
2022/04/21 07:57:05;;;;;;;2.75;1.08;;;14.60;65.00;;;;;;4954996;28;20042;-68
2022/04/21 07:59:31;;;;;;;5.65;1.65;;;14.80;66.60;;;;;;4960657;28;20118;-68
2022/04/21 08:01:57;;;;;;;1.60;1.20;;;15.00;66.00;;;;;;4961677;28;20413;-68
2022/04/21 08:04:22;;;;;;;3.20;1.10;;;15.00;66.30;;;;;;4954937;28;20126;-68
2022/04/21 08:06:49;;;;;;;4.68;1.23;;;15.00;66.40;;;;;;4960899;28;20074;-68
2022/04/21 08:09:14;;;;;;;1.95;0.77;;;15.30;64.50;;;;;;4942198;28;20548;-68
2022/04/21 08:11:40;;;;;;;2.50;1.45;;;15.30;63.70;;;;;;4962209;28;20039;-68
2022/04/21 08:14:06;;;;;;;1.70;1.27;;;15.20;62.90;;;;;;4951214;28;20135;-67
2022/04/21 08:16:32;;;;;;;3.00;1.50;;;15.10;63.90;;;;;;4964107;28;20121;-68
2022/04/21 08:19:00;;;;;;;3.70;1.10;;;15.20;65.40;;;;;;4958886;28;20081;-67
2022/04/21 08:21:26;;;;;;;4.03;1.80;;;15.30;66.30;;;;;;4963064;28;20058;-68
2022/04/21 08:23:52;;;;;;;2.63;1.30;;;15.50;66.00;;;;;;4959744;28;20046;-68
2022/04/21 08:34:30;;;;;;;5.70;1.90;;;15.80;66.00;;;;;;4957914;28;20042;-68
2022/04/21 08:36:57;;;;;;;5.10;1.80;;;15.80;65.30;;;;;;4960689;28;20049;-68
2022/04/21 08:39:23;;;;;;;5.15;2.13;;;15.90;64.50;;;;;;4954852;28;20078;-67
2022/04/21 08:41:53;;;;;;;2.42;1.80;;;15.80;64.40;;;;;;4975154;28;20046;-68
2022/04/21 08:44:20;;;;;;;3.65;1.38;;;15.70;64.40;;;;;;4960265;28;20047;-68
2022/04/21 08:46:47;;;;;;;9.73;1.88;;;15.70;64.40;;;;;;4963050;28;20047;-68
2022/04/21 08:49:16;;;;;;;6.90;2.05;;;15.70;65.70;;;;;;4957924;28;20097;-68
2022/04/21 08:51:42;;;;;;;14.48;1.75;;;15.80;65.60;;;;;;4974080;28;20680;-68
2022/04/21 08:54:08;;;;;;;3.03;1.38;;;15.90;64.80;;;;;;4958557;28;20075;-67
2022/04/21 08:56:34;;;;;;;3.38;1.60;;;15.80;63.30;;;;;;4959446;28;20524;-68
2022/04/21 08:59:00;;;;;;;3.10;1.77;;;15.80;65.50;;;;;;4976051;28;20500;-67
2022/04/21 09:01:26;;;;;;;1.95;1.40;;;15.60;65.50;;;;;;4961174;28;20038;-67
2022/04/21 09:03:52;;;;;;;3.88;1.48;;;15.80;66.60;;;;;;4955433;28;20047;-68
2022/04/21 09:06:21;;;;;;;4.90;1.73;;;15.90;67.00;;;;;;4961910;28;20046;-67
2022/04/21 09:08:48;;;;;;;5.85;1.92;;;16.00;65.70;;;;;;4958712;28;20446;-67
2022/04/21 09:11:17;;;;;;;9.90;2.00;;;16.10;65.40;;;;;;4959646;28;20404;-67
2022/04/21 09:13:44;;;;;;;3.40;1.85;;;16.10;65.60;;;;;;4960893;28;20126;-67
2022/04/21 09:16:14;;;;;;;5.40;1.40;;;16.20;65.70;;;;;;4976820;28;20047;-67
2022/04/21 09:18:45;;;;;;;2.25;1.58;;;16.20;66.40;;;;;;4963428;28;20053;-68
2022/04/21 09:21:15;;;;;;;8.32;1.83;;;16.30;66.10;;;;;;4960168;28;20381;-67
2022/04/21 09:23:43;;;;;;;2.85;1.75;;;16.30;63.70;;;;;;4963934;28;20042;-68
2022/04/21 09:26:13;;;;;;;2.42;1.73;;;16.30;67.60;;;;;;4958854;28;21758;-67
2022/04/21 09:28:40;;;;;;;3.88;1.55;;;16.30;65.70;;;;;;4960794;28;20158;-67
2022/04/21 09:31:08;;;;;;;9.95;2.38;;;16.30;64.50;;;;;;4960388;28;20050;-67
2022/04/21 09:33:36;;;;;;;2.88;1.42;;;16.30;64.40;;;;;;4957795;28;20050;-67
2022/04/21 09:36:05;;;;;;;3.10;1.85;;;16.20;64.60;;;;;;4958525;28;20042;-67
2022/04/21 09:38:31;;;;;;;3.25;1.38;;;16.40;65.00;;;;;;4954246;28;20039;-67
2022/04/21 09:41:11;;;;;;;2.00;1.30;;;16.30;65.00;;;;;;4957312;28;20042;-67
2022/04/21 09:43:38;;;;;;;4.95;1.67;;;16.30;63.70;;;;;;4960307;28;20055;-67
2022/04/21 09:46:16;;;;;;;2.78;1.20;;;16.50;63.30;;;;;;4974364;28;20062;-67
2022/04/21 09:48:46;;;;;;;10.40;1.42;;;16.50;63.10;;;;;;4963786;28;20081;-67
2022/04/21 09:51:25;;;;;;;2.72;1.42;;;16.60;64.20;;;;;;4956510;28;20039;-67
2022/04/21 09:53:59;;;;;;;2.97;1.70;;;16.70;64.90;;;;;;4959759;28;21190;-67
2022/04/21 09:56:31;;;;;;;3.72;1.48;;;16.80;64.50;;;;;;4962036;28;20046;-67
2022/04/21 09:58:58;;;;;;;2.65;1.60;;;16.70;63.20;;;;;;4961074;28;20477;-67
2022/04/21 10:01:24;;;;;;;2.50;1.35;;;16.70;62.90;;;;;;4962919;28;21352;-68
2022/04/21 10:03:51;;;;;;;3.63;1.75;;;16.70;63.80;;;;;;4965609;28;20039;-68
2022/04/21 10:06:18;;;;;;;3.85;1.40;;;16.70;65.30;;;;;;4965062;28;20042;-68
2022/04/21 10:08:44;;;;;;;2.78;0.80;;;16.70;65.00;;;;;;4966944;28;20685;-68
2022/04/21 10:11:10;;;;;;;3.45;1.30;;;16.80;63.60;;;;;;4962019;28;20045;-67
2022/04/21 10:13:36;;;;;;;2.13;1.30;;;16.80;61.60;;;;;;4962885;28;20131;-68
2022/04/21 10:16:02;;;;;;;3.40;1.23;;;16.80;62.60;;;;;;4963026;28;20042;-67
2022/04/21 10:18:28;;;;;;;2.67;1.05;;;16.90;61.70;;;;;;4964152;28;20027;-67
2022/04/21 10:20:57;;;;;;;5.60;1.88;;;16.80;60.50;;;;;;4964837;28;20436;-67
2022/04/21 10:23:26;;;;;;;2.45;1.20;;;16.80;62.00;;;;;;4959601;28;20050;-67
2022/04/21 10:26:01;;;;;;;3.40;1.15;;;16.90;61.70;;;;;;4959426;28;20058;-68
2022/04/21 10:28:41;;;;;;;1.42;1.30;;;16.90;61.40;;;;;;4961867;28;20053;-69
2022/04/21 10:31:33;;;;;;;4.30;1.45;;;17.00;67.40;;;;;;4963080;28;20054;-68
2022/04/21 10:34:07;;;;;;;3.90;1.38;;;17.00;62.90;;;;;;4961726;28;20496;-68
2022/04/21 10:36:47;;;;;;;5.68;1.55;;;17.10;63.90;;;;;;4962091;28;20071;-68
2022/04/21 10:39:23;;;;;;;1.50;1.02;;;17.10;62.60;;;;;;4964393;28;20053;-68
2022/04/21 10:42:18;;;;;;;6.28;1.70;;;17.20;61.80;;;;;;4963478;28;20409;-68
2022/04/21 10:44:45;;;;;;;12.90;1.17;;;17.00;60.10;;;;;;4959121;28;20129;-68
2022/04/21 10:47:27;;;;;;;3.88;1.30;;;17.20;65.50;;;;;;4964232;28;20256;-68
2022/04/21 10:50:12;;;;;;;2.53;1.35;;;17.20;61.90;;;;;;4965321;28;20090;-68
2022/04/21 10:57:53;;;;;;;1.63;1.00;;;17.50;61.40;;;;;;4958870;28;20138;-68
2022/04/21 11:00:32;;;;;;;3.45;2.10;;;17.40;59.90;;;;;;4960299;28;20055;-68
2022/04/21 11:03:08;;;;;;;3.17;1.20;;;17.30;59.10;;;;;;4976559;28;20053;-67
2022/04/21 11:05:38;;;;;;;3.97;1.08;;;17.40;59.70;;;;;;4963127;28;20404;-67
2022/04/21 11:08:11;;;;;;;1.65;1.00;;;17.50;58.40;;;;;;4975483;28;20051;-68
2022/04/21 11:10:36;;;;;;;3.47;1.02;;;17.20;60.00;;;;;;4962771;28;20047;-67
2022/04/21 11:13:03;;;;;;;2.65;1.10;;;17.30;60.20;;;;;;4961467;28;20050;-67
2022/04/21 11:15:44;;;;;;;1.50;1.15;;;17.50;59.20;;;;;;4961476;28;20043;-67
2022/04/21 11:18:20;;;;;;;4.15;1.42;;;17.40;57.40;;;;;;4960181;28;20050;-68
2022/04/21 11:20:48;;;;;;;4.35;1.05;;;17.30;58.00;;;;;;4963774;28;20039;-68
2022/04/21 11:23:31;;;;;;;2.00;1.42;;;17.50;59.90;;;;;;4961147;28;20049;-67
2022/04/21 11:26:08;;;;;;;1.52;1.42;;;17.60;60.60;;;;;;4978327;28;20042;-67
2022/04/21 11:28:34;;;;;;;2.72;1.30;;;17.60;60.60;;;;;;4963668;28;20054;-68
2022/04/21 11:31:02;;;;;;;1.70;1.38;;;17.70;60.00;;;;;;4964377;28;20045;-68
2022/04/21 11:33:28;;;;;;;3.15;1.75;;;17.70;58.30;;;;;;4960853;28;20121;-68
2022/04/21 11:36:07;;;;;;;3.10;1.90;;;17.60;60.10;;;;;;4963347;28;20636;-68
2022/04/21 11:38:34;;;;;;;7.20;1.80;;;17.60;64.30;;;;;;4963791;28;20046;-68
2022/04/21 11:41:04;;;;;;;2.17;1.42;;;17.50;60.70;;;;;;4965104;28;20493;-68
2022/04/21 11:43:30;;;;;;;3.38;1.50;;;17.70;61.60;;;;;;4962187;28;20034;-68
2022/04/21 11:46:00;;;;;;;2.25;1.77;;;17.70;62.40;;;;;;4963488;28;20038;-68
2022/04/21 11:48:38;;;;;;;5.07;1.65;;;17.60;58.70;;;;;;4963162;28;20402;-68
2022/04/21 11:51:10;;;;;;;3.25;1.08;;;17.50;58.60;;;;;;4961376;28;20042;-68
2022/04/21 11:53:40;;;;;;;7.07;1.30;;;17.50;60.70;;;;;;4971843;28;20078;-68
2022/04/21 11:56:11;;;;;;;2.75;1.40;;;17.70;62.80;;;;;;4961784;28;20039;-68
2022/04/21 11:58:41;;;;;;;3.58;1.38;;;17.80;62.40;;;;;;4977569;28;20053;-68
2022/04/21 12:06:55;;;;;;;8.98;1.60;;;17.50;62.60;;;;;;4956397;28;21449;-67
2022/04/21 12:09:22;;;;;;;7.97;2.10;;;17.50;60.80;;;;;;4961272;28;20050;-68
2022/04/21 12:11:54;;;;;;;3.72;1.88;;;17.50;63.20;;;;;;4961049;28;20062;-68
2022/04/21 12:14:21;;;;;;;6.00;2.13;;;17.60;65.40;;;;;;4959417;28;20390;-67
2022/04/21 12:16:57;;;;;;;1.70;1.50;;;17.50;60.30;;;;;;4956848;28;20039;-68
2022/04/21 12:19:44;;;;;;;1.88;1.52;;;17.40;60.50;;;;;;4962925;28;20129;-68
2022/04/21 12:22:11;;;;;;;4.82;1.60;;;17.40;60.70;;;;;;4963801;28;20047;-67
2022/04/21 12:24:41;;;;;;;6.97;1.45;;;17.30;59.30;;;;;;4974573;28;20106;-67
2022/04/21 12:27:37;;;;;;;3.30;1.85;;;17.40;62.00;;;;;;4971803;28;20047;-68
2022/04/21 12:30:11;;;;;;;2.25;1.70;;;17.20;60.90;;;;;;4959482;28;20327;-68
2022/04/21 12:32:39;;;;;;;3.50;1.53;;;17.40;60.80;;;;;;4979303;28;20057;-68
2022/04/21 12:35:07;;;;;;;4.38;1.90;;;17.30;59.50;;;;;;4959523;28;20047;-67
2022/04/21 12:37:35;;;;;;;4.82;1.70;;;17.40;61.00;;;;;;4958403;28;20929;-68
2022/04/21 12:40:21;;;;;;;4.45;2.25;;;17.40;60.90;;;;;;4963520;28;20031;-68
2022/04/21 12:42:50;;;;;;;3.35;2.10;;;17.20;60.70;;;;;;4958272;28;20054;-68
2022/04/21 12:45:16;;;;;;;3.72;2.13;;;17.30;64.20;;;;;;4961306;28;20047;-67
2022/04/21 12:47:46;;;;;;;5.70;2.65;;;17.40;62.70;;;;;;4961763;28;20042;-68
2022/04/21 12:50:19;;;;;;;4.80;3.00;;;17.40;65.90;;;;;;4962747;28;20523;-68
2022/04/21 12:52:46;;;;;;;4.20;2.53;;;17.60;67.10;;;;;;4961933;28;20043;-68
2022/04/21 12:55:22;;;;;;;4.90;2.00;;;17.70;64.30;;;;;;4976139;28;20031;-68
2022/04/21 12:58:06;;;;;;;;;;;17.80;66.00;;;;;;4959552;28;20047;-68
2022/04/21 13:00:38;;;;;;;4.30;2.15;;;17.80;62.40;;;;;;4962590;28;20715;-68
2022/04/21 13:03:04;;;;;;;3.85;1.73;;;17.50;62.30;;;;;;4961991;28;20093;-68
2022/04/21 13:05:30;;;;;;;4.00;1.95;;;17.40;65.60;;;;;;4961489;28;20423;-68
2022/04/21 13:07:57;;;;;;;2.40;2.20;;;17.60;64.60;;;;;;4946578;28;20050;-68
2022/04/21 13:10:22;;;;;;;3.78;2.20;;;17.70;65.00;;;;;;4964810;28;20619;-68
2022/04/21 13:12:48;;;;;;;6.00;2.20;;;17.60;62.50;;;;;;4963072;28;20046;-68
2022/04/21 13:15:14;;;;;;;3.70;2.35;;;17.60;62.40;;;;;;4975848;28;20113;-68
2022/04/21 13:17:42;;;;;;;3.40;2.97;;;17.60;64.00;;;;;;4959752;28;20126;-68
2022/04/21 13:20:09;;;;;;;5.68;2.15;;;17.50;64.90;;;;;;4961502;28;20456;-68
2022/04/21 13:22:35;;;;;;;2.58;1.98;;;17.40;62.20;;;;;;4946557;28;20540;-68
2022/04/21 13:25:01;;;;;;;5.68;3.20;;;17.50;61.70;;;;;;4960240;28;20490;-68
2022/04/21 13:27:28;;;;;;;7.32;2.72;;;17.60;66.60;;;;;;4959400;28;20049;-68
2022/04/21 13:29:54;;;;;;;3.33;2.72;;;17.60;66.10;;;;;;4978111;28;20086;-68
2022/04/21 13:35:04;;;;;;;3.13;2.42;;;17.60;65.00;;;;;;4958389;28;20141;-68
2022/04/21 13:37:30;;;;;;;9.02;3.22;;;17.60;62.80;;;;;;4964341;28;20588;-68
2022/04/21 13:39:56;;;;;;;6.65;2.60;;;17.70;65.30;;;;;;4966626;28;20114;-68
2022/04/21 13:42:21;;;;;;;6.35;2.25;;;17.60;65.10;;;;;;4968207;28;20043;-68
2022/04/21 13:44:47;;;;;;;3.97;2.70;;;18.10;64.40;;;;;;4965665;28;20051;-68
2022/04/21 13:47:13;;;;;;;9.93;2.80;;;17.80;64.30;;;;;;4965658;28;20043;-69